createdAt,value
2017-08-28T00:00:28.843Z,83.70
2017-08-28T00:02:57.258Z,83.40
2017-08-28T00:05:24.759Z,83.70
2017-08-28T00:07:52.249Z,83.60
2017-08-28T00:10:19.761Z,83.30
2017-08-28T00:12:47.242Z,83.40
2017-08-28T00:15:14.742Z,83.40
2017-08-28T00:17:42.226Z,83.30
2017-08-28T00:20:09.698Z,83.90
2017-08-28T00:22:37.199Z,83.30
2017-08-28T00:25:05.607Z,83.10
2017-08-28T00:27:33.095Z,83.50
2017-08-28T00:30:00.618Z,83.00
2017-08-28T00:32:28.098Z,83.10
2017-08-28T00:34:55.594Z,82.90
2017-08-28T00:37:23.078Z,83.80
2017-08-28T00:39:50.577Z,83.40
2017-08-28T00:42:18.082Z,83.20
2017-08-28T00:44:45.576Z,83.10
2017-08-28T00:47:13.062Z,83.20
2017-08-28T00:49:40.534Z,83.10
2017-08-28T00:52:08.026Z,83.10
2017-08-28T00:54:35.518Z,83.30
2017-08-28T00:57:03.027Z,82.80
2017-08-28T00:59:30.503Z,83.10
2017-08-28T01:01:58.042Z,83.00
2017-08-28T01:04:25.522Z,83.10
2017-08-28T01:06:53.039Z,83.00
2017-08-28T01:09:20.514Z,82.90
2017-08-28T01:11:48.003Z,82.90
2017-08-28T01:14:15.515Z,83.10
2017-08-28T01:16:43.016Z,83.00
2017-08-28T01:19:10.510Z,82.90
2017-08-28T01:21:37.990Z,82.90
2017-08-28T01:24:05.499Z,83.50
2017-08-28T01:26:34.942Z,83.10
2017-08-28T01:29:02.419Z,83.50
2017-08-28T01:31:29.916Z,83.50
2017-08-28T01:33:57.398Z,83.40
2017-08-28T01:36:24.902Z,83.50
2017-08-28T01:38:52.389Z,83.90
2017-08-28T01:41:19.888Z,83.90
2017-08-28T01:43:47.950Z,84.00
2017-08-28T01:46:17.411Z,84.30
2017-08-28T01:48:44.914Z,84.20
2017-08-28T01:51:12.390Z,84.30
2017-08-28T01:53:39.889Z,84.00
2017-08-28T01:56:07.389Z,83.90
2017-08-28T01:58:34.886Z,84.10
2017-08-28T02:01:02.364Z,84.10
2017-08-28T02:03:29.877Z,84.10
2017-08-28T02:05:57.355Z,84.30
2017-08-28T02:08:24.834Z,84.30
2017-08-28T02:10:52.345Z,84.70
2017-08-28T02:13:19.826Z,84.20
2017-08-28T02:15:47.336Z,83.80
2017-08-28T02:18:15.702Z,83.80
2017-08-28T02:20:43.214Z,83.90
2017-08-28T02:23:10.689Z,84.10
2017-08-28T02:25:38.214Z,84.10
2017-08-28T02:28:05.711Z,84.10
2017-08-28T02:30:33.223Z,83.90
2017-08-28T02:33:00.702Z,83.90
2017-08-28T02:35:28.201Z,84.00
2017-08-28T02:37:55.680Z,84.10
2017-08-28T02:40:23.173Z,84.30
2017-08-28T02:42:50.656Z,84.40
2017-08-28T02:45:18.161Z,84.40
2017-08-28T02:47:46.586Z,84.00
2017-08-28T02:50:14.087Z,84.20
2017-08-28T02:52:41.570Z,84.00
2017-08-28T02:55:09.071Z,84.40
2017-08-28T02:57:36.547Z,83.90
2017-08-28T03:00:04.027Z,84.00
2017-08-28T03:02:31.531Z,84.10
2017-08-28T03:04:59.015Z,83.90
2017-08-28T03:07:28.442Z,84.20
2017-08-28T03:09:55.922Z,84.40
2017-08-28T03:12:23.423Z,84.40
2017-08-28T03:14:50.931Z,84.70
2017-08-28T03:17:18.433Z,84.50
2017-08-28T03:19:45.905Z,84.60
2017-08-28T03:22:13.416Z,84.30
2017-08-28T03:24:40.905Z,84.70
2017-08-28T03:27:08.409Z,84.70
2017-08-28T03:29:35.893Z,84.60
2017-08-28T03:32:03.398Z,84.70
2017-08-28T03:34:30.922Z,84.50
2017-08-28T03:36:58.435Z,84.60
2017-08-28T03:39:26.863Z,85.00
2017-08-28T03:41:54.380Z,84.90
2017-08-28T03:44:22.784Z,84.70
2017-08-28T03:46:50.282Z,85.00
2017-08-28T03:49:17.761Z,85.10
2017-08-28T03:51:45.282Z,85.10
2017-08-28T03:54:12.787Z,85.40
2017-08-28T03:56:40.267Z,85.50
2017-08-28T03:59:07.762Z,85.30
2017-08-28T04:01:36.386Z,85.40
2017-08-28T04:04:03.905Z,85.50
2017-08-28T04:06:32.294Z,85.40
2017-08-28T04:08:59.782Z,85.50
2017-08-28T04:11:27.290Z,85.90
2017-08-28T04:13:54.839Z,85.90
2017-08-28T04:16:22.369Z,85.70
2017-08-28T04:18:49.863Z,85.60
2017-08-28T04:21:17.419Z,85.70
2017-08-28T04:23:44.915Z,85.80
2017-08-28T04:26:12.475Z,85.80
2017-08-28T04:28:39.982Z,85.70
2017-08-28T04:31:07.527Z,85.90
2017-08-28T04:33:35.034Z,86.00
2017-08-28T04:36:02.534Z,86.20
2017-08-28T04:38:30.152Z,86.00
2017-08-28T04:40:57.640Z,85.80
2017-08-28T04:43:25.143Z,86.10
2017-08-28T04:45:52.628Z,85.90
2017-08-28T04:48:21.062Z,85.80
2017-08-28T04:50:48.565Z,85.80
2017-08-28T04:53:16.051Z,85.80
2017-08-28T04:55:43.556Z,85.90
2017-08-28T04:58:11.046Z,86.00
2017-08-28T05:00:38.589Z,85.90
2017-08-28T05:03:06.076Z,86.00
2017-08-28T05:05:33.584Z,86.10
2017-08-28T05:08:01.081Z,86.10
2017-08-28T05:10:28.581Z,86.20
2017-08-28T05:12:56.062Z,86.20
2017-08-28T05:15:23.553Z,86.20
2017-08-28T05:17:51.051Z,86.40
2017-08-28T05:20:18.542Z,86.40
2017-08-28T05:22:46.037Z,86.40
2017-08-28T05:25:13.538Z,86.20
2017-08-28T05:27:41.973Z,86.20
2017-08-28T05:30:09.486Z,86.10
2017-08-28T05:32:37.913Z,86.10
2017-08-28T05:35:06.323Z,85.80
2017-08-28T05:37:33.798Z,85.90
2017-08-28T05:40:03.222Z,86.20
2017-08-28T05:42:30.702Z,86.20
2017-08-28T05:44:58.187Z,86.10
2017-08-28T05:47:27.036Z,86.10
2017-08-28T05:49:54.530Z,86.10
2017-08-28T05:52:22.039Z,86.20
2017-08-28T05:54:49.538Z,86.00
2017-08-28T05:57:17.039Z,86.10
2017-08-28T05:59:44.523Z,86.40
2017-08-28T06:02:12.023Z,86.00
2017-08-28T06:04:39.494Z,86.00
2017-08-28T06:07:08.415Z,85.90
2017-08-28T06:09:36.842Z,85.90
2017-08-28T06:12:05.682Z,86.20
2017-08-28T06:14:33.163Z,85.90
2017-08-28T06:17:00.675Z,85.60
2017-08-28T06:19:28.162Z,85.50
2017-08-28T06:21:56.620Z,85.50
2017-08-28T06:24:24.122Z,85.30
2017-08-28T06:26:52.532Z,85.30
2017-08-28T06:29:20.010Z,85.10
2017-08-28T06:31:47.515Z,85.20
2017-08-28T06:34:15.939Z,85.00
2017-08-28T06:36:43.438Z,84.90
2017-08-28T06:39:11.543Z,84.40
2017-08-28T06:41:39.967Z,84.10
2017-08-28T06:44:07.442Z,84.80
2017-08-28T06:46:35.190Z,84.10
2017-08-28T06:49:02.691Z,84.20
2017-08-28T06:51:30.196Z,84.00
2017-08-28T06:53:57.674Z,83.90
2017-08-28T06:56:25.183Z,83.60
2017-08-28T06:58:52.675Z,83.60
2017-08-28T07:01:20.171Z,83.50
2017-08-28T07:03:47.706Z,83.50
2017-08-28T07:06:15.187Z,83.30
2017-08-28T07:08:42.683Z,83.30
2017-08-28T07:11:10.186Z,83.20
2017-08-28T07:13:37.689Z,82.90
2017-08-28T07:16:05.190Z,83.20
2017-08-28T07:18:32.662Z,83.20
2017-08-28T07:21:02.091Z,83.10
2017-08-28T07:23:29.586Z,82.70
2017-08-28T07:25:57.082Z,82.80
2017-08-28T07:28:24.574Z,82.90
2017-08-28T07:30:52.054Z,82.80
2017-08-28T07:33:19.550Z,82.40
2017-08-28T07:35:47.036Z,82.20
2017-08-28T07:38:14.539Z,82.60
2017-08-28T07:40:42.039Z,82.20
2017-08-28T07:43:09.563Z,81.70
2017-08-28T07:45:37.043Z,81.30
2017-08-28T07:48:04.546Z,81.30
2017-08-28T07:50:32.026Z,81.20
2017-08-28T07:52:59.526Z,81.30
2017-08-28T07:55:27.043Z,81.40
2017-08-28T07:57:54.581Z,81.20
2017-08-28T08:00:22.082Z,81.10
2017-08-28T08:02:49.603Z,81.30
2017-08-28T08:05:17.115Z,80.90
2017-08-28T08:07:45.362Z,80.80
2017-08-28T08:10:12.880Z,80.80
2017-08-28T08:12:40.370Z,80.70
2017-08-28T08:15:07.871Z,80.50
2017-08-28T08:17:35.376Z,80.90
2017-08-28T08:20:02.866Z,80.10
2017-08-28T08:22:30.398Z,80.00
2017-08-28T08:24:58.272Z,80.70
2017-08-28T08:27:25.783Z,80.00
2017-08-28T08:29:53.301Z,80.30
2017-08-28T08:32:21.724Z,79.90
2017-08-28T08:34:49.218Z,79.40
2017-08-28T08:37:16.723Z,79.40
2017-08-28T08:39:44.212Z,79.20
2017-08-28T08:42:14.330Z,80.00
2017-08-28T08:44:41.822Z,80.00
2017-08-28T08:47:09.330Z,80.30
2017-08-28T08:49:36.817Z,79.90
2017-08-28T08:52:04.391Z,80.40
2017-08-28T08:54:31.894Z,79.20
2017-08-28T08:56:59.434Z,79.90
2017-08-28T08:59:28.942Z,79.80
2017-08-28T09:01:57.358Z,79.50
2017-08-28T09:04:24.867Z,79.40
2017-08-28T09:06:52.366Z,80.00
2017-08-28T09:09:19.846Z,79.70
2017-08-28T09:11:47.382Z,79.20
2017-08-28T09:14:14.877Z,78.80
2017-08-28T09:16:42.406Z,78.90
2017-08-28T09:19:09.898Z,78.60
2017-08-28T09:21:37.792Z,78.80
2017-08-28T09:24:05.291Z,78.40
2017-08-28T09:26:32.790Z,79.10
2017-08-28T09:29:00.272Z,78.10
2017-08-28T09:31:27.790Z,78.50
2017-08-28T09:33:55.266Z,78.20
2017-08-28T09:36:22.746Z,77.80
2017-08-28T09:38:50.247Z,77.70
2017-08-28T09:41:18.721Z,77.90
2017-08-28T09:43:46.222Z,78.10
2017-08-28T09:46:13.710Z,77.70
2017-08-28T09:48:41.233Z,78.00
2017-08-28T09:51:08.729Z,77.70
2017-08-28T09:53:36.226Z,77.60
2017-08-28T09:56:03.743Z,77.10
2017-08-28T09:58:31.222Z,77.10
2017-08-28T10:00:58.702Z,76.60
2017-08-28T10:03:26.211Z,76.60
2017-08-28T10:05:53.695Z,77.10
2017-08-28T10:08:21.190Z,77.50
2017-08-28T10:10:48.687Z,76.90
2017-08-28T10:13:16.190Z,76.90
2017-08-28T10:15:43.684Z,76.70
2017-08-28T10:18:11.182Z,76.40
2017-08-28T10:20:38.675Z,75.90
2017-08-28T10:23:06.179Z,76.20
2017-08-28T10:25:33.674Z,76.50
2017-08-28T10:28:01.172Z,75.50
2017-08-28T10:30:28.687Z,76.00
2017-08-28T10:32:57.124Z,75.80
2017-08-28T10:35:24.655Z,74.90
2017-08-28T10:37:52.135Z,75.90
2017-08-28T10:40:19.634Z,75.90
2017-08-28T10:42:47.140Z,75.30
2017-08-28T10:45:15.582Z,75.30
2017-08-28T10:47:43.101Z,75.50
2017-08-28T10:50:10.599Z,74.90
2017-08-28T10:52:38.119Z,74.40
2017-08-28T10:55:05.614Z,75.20
2017-08-28T10:57:35.140Z,75.10
2017-08-28T11:00:02.634Z,75.40
2017-08-28T11:02:30.185Z,74.60
2017-08-28T11:04:57.662Z,74.00
2017-08-28T11:07:25.480Z,73.70
2017-08-28T11:09:53.906Z,74.50
2017-08-28T11:12:21.403Z,74.20
2017-08-28T11:14:48.912Z,74.40
2017-08-28T11:17:17.339Z,74.30
2017-08-28T11:19:44.834Z,74.40
2017-08-28T11:22:12.335Z,74.20
2017-08-28T11:24:39.806Z,74.20
2017-08-28T11:27:09.231Z,73.70
2017-08-28T11:29:36.717Z,74.30
2017-08-28T11:32:04.218Z,73.80
2017-08-28T11:34:32.664Z,73.80
2017-08-28T11:37:00.204Z,73.30
2017-08-28T11:39:27.690Z,73.30
2017-08-28T11:41:57.127Z,73.20
2017-08-28T11:44:25.510Z,73.50
2017-08-28T11:46:53.010Z,73.00
2017-08-28T11:49:20.546Z,73.60
2017-08-28T11:51:48.033Z,72.90
2017-08-28T11:54:15.548Z,72.30
2017-08-28T11:56:43.036Z,72.60
2017-08-28T11:59:10.539Z,72.90
2017-08-28T12:01:38.028Z,73.40
2017-08-28T12:04:05.525Z,72.50
2017-08-28T12:06:34.974Z,72.70
2017-08-28T12:09:02.470Z,72.40
2017-08-28T12:11:29.989Z,73.10
2017-08-28T12:13:57.478Z,72.80
2017-08-28T12:16:24.972Z,72.80
2017-08-28T12:18:52.468Z,72.50
2017-08-28T12:21:19.959Z,72.30
2017-08-28T12:23:47.479Z,71.90
2017-08-28T12:26:14.975Z,72.10
2017-08-28T12:28:42.503Z,72.10
2017-08-28T12:31:10.954Z,71.50
2017-08-28T12:33:38.453Z,71.90
2017-08-28T12:36:05.970Z,72.50
2017-08-28T12:38:34.310Z,72.80
2017-08-28T12:41:01.780Z,71.70
2017-08-28T12:43:31.207Z,71.80
2017-08-28T12:45:58.707Z,72.00
2017-08-28T12:48:26.186Z,71.60
2017-08-28T12:50:54.599Z,71.40
2017-08-28T12:53:22.123Z,73.70
2017-08-28T12:55:49.641Z,71.50
2017-08-28T12:58:17.124Z,71.50
2017-08-28T13:00:44.795Z,71.40
2017-08-28T13:03:14.287Z,71.90
2017-08-28T13:05:41.771Z,71.70
2017-08-28T13:08:09.261Z,71.40
2017-08-28T13:10:36.786Z,71.00
2017-08-28T13:13:04.307Z,70.80
2017-08-28T13:15:32.833Z,71.80
2017-08-28T13:18:00.345Z,72.30
2017-08-28T13:20:28.235Z,71.30
2017-08-28T13:22:55.756Z,71.30
2017-08-28T13:25:23.243Z,70.70
2017-08-28T13:27:50.764Z,70.70
2017-08-28T13:30:18.247Z,70.80
2017-08-28T13:32:45.772Z,70.70
2017-08-28T13:35:13.305Z,70.40
2017-08-28T13:37:40.850Z,70.70
2017-08-28T13:40:08.352Z,70.70
2017-08-28T13:42:37.807Z,71.10
2017-08-28T13:45:05.778Z,70.80
2017-08-28T13:47:33.518Z,70.60
2017-08-28T13:50:02.012Z,70.50
2017-08-28T13:52:29.534Z,70.40
2017-08-28T13:54:57.015Z,69.80
2017-08-28T13:57:24.527Z,70.60
2017-08-28T13:59:52.881Z,70.50
2017-08-28T14:02:20.393Z,70.80
2017-08-28T14:04:48.005Z,70.00
2017-08-28T14:07:15.576Z,70.40
2017-08-28T14:09:43.114Z,69.60
2017-08-28T14:12:10.606Z,70.00
2017-08-28T14:14:38.487Z,69.80
2017-08-28T14:17:07.576Z,69.70
2017-08-28T14:19:35.062Z,69.20
2017-08-28T14:22:02.585Z,69.60
2017-08-28T14:24:31.775Z,70.10
2017-08-28T14:26:59.267Z,70.50
2017-08-28T14:29:27.801Z,70.10
2017-08-28T14:31:55.314Z,69.30
2017-08-28T14:34:22.906Z,70.00
2017-08-28T14:36:50.410Z,69.80
2017-08-28T14:39:17.962Z,70.00
2017-08-28T14:41:45.472Z,69.40
2017-08-28T14:44:12.986Z,70.20
2017-08-28T14:46:40.670Z,69.70
2017-08-28T14:49:08.240Z,69.00
2017-08-28T14:51:36.717Z,69.40
2017-08-28T14:54:04.345Z,69.50
2017-08-28T14:56:31.842Z,69.80
2017-08-28T14:58:59.343Z,69.40
2017-08-28T15:01:26.835Z,69.40
2017-08-28T15:03:54.375Z,69.80
2017-08-28T15:06:22.827Z,69.70
2017-08-28T15:08:53.174Z,69.90
2017-08-28T15:11:20.716Z,70.00
2017-08-28T15:13:48.211Z,69.90
2017-08-28T15:16:15.723Z,69.80
2017-08-28T15:18:43.293Z,69.90
2017-08-28T15:21:10.827Z,70.30
2017-08-28T15:23:39.021Z,69.90
2017-08-28T15:26:06.514Z,70.10
2017-08-28T15:28:34.091Z,69.90
2017-08-28T15:31:01.615Z,69.50
2017-08-28T15:33:29.272Z,69.40
2017-08-28T15:35:56.908Z,69.80
2017-08-28T15:38:25.710Z,70.20
2017-08-28T15:40:54.053Z,70.20
2017-08-28T15:43:21.624Z,70.30
2017-08-28T15:45:49.309Z,70.60
2017-08-28T15:48:16.865Z,69.70
2017-08-28T15:50:45.326Z,70.10
2017-08-28T15:53:12.836Z,70.00
2017-08-28T15:55:40.328Z,70.20
2017-08-28T15:58:07.892Z,70.30
2017-08-28T16:00:35.396Z,70.50
2017-08-28T16:03:02.895Z,70.00
2017-08-28T16:05:30.376Z,70.50
2017-08-28T16:07:58.060Z,70.60
2017-08-28T16:10:25.607Z,70.00
2017-08-28T16:12:53.182Z,70.50
2017-08-28T16:15:20.659Z,70.40
2017-08-28T16:17:48.287Z,70.60
2017-08-28T16:20:17.790Z,70.30
2017-08-28T16:22:45.480Z,70.80
2017-08-28T16:25:13.086Z,71.00
2017-08-28T16:27:40.700Z,70.60
2017-08-28T16:30:09.181Z,70.80
2017-08-28T16:32:36.678Z,70.70
2017-08-28T16:35:04.181Z,70.80
2017-08-28T16:37:31.675Z,70.60
2017-08-28T16:39:59.188Z,71.10
2017-08-28T16:42:27.574Z,70.50
2017-08-28T16:44:55.847Z,70.40
2017-08-28T16:47:23.419Z,70.60
2017-08-28T16:49:50.932Z,70.40
2017-08-28T16:52:19.355Z,70.80
2017-08-28T16:54:49.781Z,70.80
2017-08-28T16:57:17.338Z,70.50
2017-08-28T16:59:44.846Z,70.70
2017-08-28T17:02:12.326Z,70.60
2017-08-28T17:04:39.842Z,71.00
2017-08-28T17:07:07.323Z,71.10
2017-08-28T17:09:49.670Z,70.90
2017-08-28T17:12:17.162Z,70.70
2017-08-28T17:14:44.658Z,70.90
2017-08-28T17:17:13.077Z,71.10
2017-08-28T17:19:40.589Z,71.10
2017-08-28T17:22:08.100Z,71.20
2017-08-28T17:24:37.547Z,71.20
2017-08-28T17:27:05.029Z,71.20
2017-08-28T17:29:32.538Z,71.30
2017-08-28T17:32:00.028Z,71.30
2017-08-28T17:34:27.587Z,71.20
2017-08-28T17:36:55.188Z,71.40
2017-08-28T17:39:22.784Z,71.20
2017-08-28T17:41:50.394Z,71.20
2017-08-28T17:44:17.995Z,71.30
2017-08-28T17:46:45.587Z,71.40
2017-08-28T17:49:13.148Z,71.50
2017-08-28T17:51:40.695Z,71.60
2017-08-28T17:54:08.315Z,71.70
2017-08-28T17:56:35.903Z,71.60
2017-08-28T17:59:03.425Z,72.00
2017-08-28T18:01:32.328Z,72.30
2017-08-28T18:04:00.048Z,72.80
2017-08-28T18:06:27.583Z,73.50
2017-08-28T18:08:55.607Z,73.20
2017-08-28T18:11:23.169Z,73.90
2017-08-28T18:13:50.713Z,73.30
2017-08-28T18:16:18.245Z,73.70
2017-08-28T18:18:45.835Z,77.60
2017-08-28T18:21:13.906Z,79.20
2017-08-28T18:23:41.477Z,80.60
2017-08-28T18:26:09.025Z,80.80
2017-08-28T18:28:36.560Z,81.60
2017-08-28T18:31:04.105Z,82.60
2017-08-28T18:33:31.658Z,82.80
2017-08-28T18:35:59.199Z,83.60
2017-08-28T18:38:26.787Z,83.90
2017-08-28T18:40:54.329Z,84.60
2017-08-28T18:43:21.893Z,84.90
2017-08-28T18:45:49.513Z,85.20
2017-08-28T18:48:17.095Z,85.40
2017-08-28T18:50:44.651Z,85.60
2017-08-28T18:53:12.238Z,85.80
2017-08-28T18:55:39.856Z,85.90
2017-08-28T18:58:07.404Z,86.50
2017-08-28T19:00:34.945Z,86.90
2017-08-28T19:03:03.527Z,87.30
2017-08-28T19:05:31.118Z,87.20
2017-08-28T19:07:58.642Z,87.10
2017-08-28T19:10:26.252Z,86.90
2017-08-28T19:12:54.799Z,86.90
2017-08-28T19:15:23.301Z,86.90
2017-08-28T19:17:52.068Z,87.40
2017-08-28T19:20:19.648Z,87.20
2017-08-28T19:22:47.175Z,87.20
2017-08-28T19:25:16.725Z,87.50
2017-08-28T19:27:44.267Z,87.80
2017-08-28T19:30:11.830Z,88.20
2017-08-28T19:32:39.363Z,88.30
2017-08-28T19:35:08.835Z,88.50
2017-08-28T19:37:36.371Z,88.20
2017-08-28T19:40:03.970Z,88.20
2017-08-28T19:42:31.578Z,88.80
2017-08-28T19:44:59.151Z,88.80
2017-08-28T19:47:26.681Z,88.90
2017-08-28T19:49:54.809Z,88.60
2017-08-28T19:52:23.242Z,88.40
2017-08-28T19:54:50.847Z,88.30
2017-08-28T19:57:18.493Z,88.70
2017-08-28T19:59:46.088Z,88.80
2017-08-28T20:02:13.627Z,88.90
2017-08-28T20:04:41.195Z,89.10
2017-08-28T20:07:08.774Z,89.00
2017-08-28T20:09:36.409Z,89.20
2017-08-28T20:12:03.985Z,89.50
2017-08-28T20:14:31.509Z,89.90
2017-08-28T20:17:00.013Z,90.20
2017-08-28T20:19:28.395Z,90.50
2017-08-28T20:21:55.976Z,90.70
2017-08-28T20:24:24.487Z,90.70
2017-08-28T20:26:52.938Z,90.70
2017-08-28T20:29:20.462Z,91.10
2017-08-28T20:31:48.029Z,91.30
2017-08-28T20:34:15.604Z,91.50
2017-08-28T20:36:43.130Z,91.70
2017-08-28T20:39:10.716Z,91.50
2017-08-28T20:41:38.261Z,91.40
2017-08-28T20:44:05.819Z,91.60
2017-08-28T20:46:33.387Z,92.20
2017-08-28T20:49:00.903Z,92.30
2017-08-28T20:51:28.518Z,92.10
2017-08-28T20:53:56.112Z,91.70
2017-08-28T20:56:23.683Z,91.50
2017-08-28T20:58:51.231Z,91.50
2017-08-28T21:01:18.759Z,92.10
2017-08-28T21:03:46.307Z,91.80
2017-08-28T21:06:13.843Z,91.80
2017-08-28T21:08:41.402Z,92.10
2017-08-28T21:11:08.994Z,92.10
2017-08-28T21:13:37.529Z,92.30
2017-08-28T21:16:05.624Z,92.00
2017-08-28T21:18:33.212Z,92.30
2017-08-28T21:21:03.407Z,92.90
2017-08-28T21:23:30.957Z,92.90
2017-08-28T21:25:58.502Z,93.10
2017-08-28T21:28:26.068Z,93.10
2017-08-28T21:30:53.658Z,92.70
2017-08-28T21:33:21.182Z,92.30
2017-08-28T21:35:49.686Z,92.10
2017-08-28T21:38:17.253Z,92.10
2017-08-28T21:40:47.560Z,92.40
2017-08-28T21:43:15.394Z,93.20
2017-08-28T21:45:42.907Z,93.50
2017-08-28T21:48:11.474Z,93.60
2017-08-28T21:50:39.014Z,93.50
2017-08-28T21:53:06.635Z,93.60
2017-08-28T21:55:34.237Z,93.30
2017-08-28T21:58:01.875Z,93.30
2017-08-28T22:00:29.405Z,93.40
2017-08-28T22:02:57.013Z,93.50
2017-08-28T22:05:27.025Z,93.70
2017-08-28T22:07:54.655Z,93.90
2017-08-28T22:10:22.292Z,94.10
2017-08-28T22:12:49.792Z,93.90
2017-08-28T22:15:18.327Z,93.90
2017-08-28T22:17:46.712Z,93.90
2017-08-28T22:20:14.289Z,94.00
2017-08-28T22:22:41.774Z,94.10
2017-08-28T22:25:09.266Z,94.40
2017-08-28T22:27:36.774Z,94.20
2017-08-28T22:30:04.265Z,94.40
2017-08-28T22:32:31.770Z,94.70
2017-08-28T22:34:59.255Z,94.90
2017-08-28T22:37:27.725Z,95.10
2017-08-28T22:39:55.214Z,95.00
2017-08-28T22:42:22.718Z,94.90
2017-08-28T22:44:50.226Z,94.80
2017-08-28T22:47:17.713Z,94.70
2017-08-28T22:49:45.223Z,94.80
2017-08-28T22:52:12.720Z,94.90
2017-08-28T22:54:40.237Z,94.90
2017-08-28T22:57:07.758Z,94.80
2017-08-28T22:59:35.280Z,95.10
2017-08-28T23:02:02.773Z,95.00
2017-08-28T23:04:30.288Z,95.00
2017-08-28T23:06:57.782Z,94.90
2017-08-28T23:09:25.270Z,94.70
2017-08-28T23:11:52.784Z,94.70
2017-08-28T23:14:20.288Z,94.90
2017-08-28T23:16:48.719Z,95.10
2017-08-28T23:19:16.202Z,95.00
2017-08-28T23:21:44.697Z,94.90
2017-08-28T23:24:12.196Z,95.10
2017-08-28T23:26:39.923Z,94.90
2017-08-28T23:29:07.501Z,94.80
2017-08-28T23:31:35.002Z,95.30
2017-08-28T23:34:04.467Z,95.20
2017-08-28T23:36:32.902Z,95.40
2017-08-28T23:39:00.418Z,95.20
2017-08-28T23:41:27.919Z,95.60
2017-08-28T23:43:55.435Z,95.10
2017-08-28T23:46:28.133Z,95.20
2017-08-28T23:48:55.787Z,95.30
2017-08-28T23:51:23.297Z,95.20
2017-08-28T23:53:50.868Z,95.40
2017-08-28T23:56:18.411Z,95.70
2017-08-28T23:58:45.934Z,95.70
